Avondale, CO

11:05 PM MDT on March 27, 2017 (GMT -0600)
Pueblo Memorial | | Change Station

Elev 4724 ft 38.29 °N, 104.50 °W | Updated 12 minutes ago

Overcast
Overcast
50 °F
Feels Like 50 °F
N
14
Wind Variable Wind from ESE

Today
High -- | Low -- °F
--% Chance of Precip.
Yesterday
High -- | Low -- °F
Precip. -- in
Pressure 29.73 in
Visibility 10.0 miles
Clouds Few 8000 ft
Overcast 11000 ft
Dew Point 46 °F
Humidity 86%
Rainfall 0.01 in
Snow Depth Not available.
6:49 AM 7:16 PM
New Moon, 0% visible
METAR KPUB 280453Z AUTO 11012KT 10SM FEW080 OVC110 10/08 A2981 RMK AO2 RAE25 SLP066 P0001 T01000078
Pressure 29.73 in
Visibility 10.0 miles
Clouds Few 8000 ft
Overcast 11000 ft
Dew Point 46 °F
Humidity 86%
Rainfall 0.01 in
Snow Depth Not available.
6:49 AM 7:16 PM
New Moon, 0% visible
METAR KPUB 280453Z AUTO 11012KT 10SM FEW080 OVC110 10/08 A2981 RMK AO2 RAE25 SLP066 P0001 T01000078

Get Severe Weather Alerts

Thanks for signing up!

Be on the lookout for a verification email in your inbox.

You'll start receiving the daily forecast at 8 AM.

×

10-Day Weather Forecast

Almanac

Astronomy

Mar. 27, 2017 Rise Set
Actual Time
Civil Twilight
Nautical Twilight
Astronomical Twilight
Moon
Length of Visible Light
Length of Day
Tomorrow will be .
, % of the Moon is Illuminated

Today's Extremes

State Highs State Lows

Community

WunderPhotos

Upload Photos

1,962,540 photos uploaded!

WunderBlog® & News

Nearby

Air Quality

  Air Quality AQ Index Pollutant
Not available.

Snow Depth

Station Depth Elevation

Earthquake Activity

City Distance Mag. Time & Date
Minimum magnitude displayed is 2.5.

Earthquake Activity

City Distance Mag. Time & Date
Minimum magnitude displayed is 2.5.

Coastal Water Temperatures

Place Temperature

Stations

Nearby Weather Stations

Station Location Temp. Windchill Dew Point Humidity Wind Precip. Elev Updated Type
                   

Watches & Warnings

There are currently no watches in effect.